Flight Track Log - Related Links

Times and Time Zones

All times are in EDT time to prevent confusion due to time zone crossing. See the RPA3275 flight status page for this flight to view local times or setup timezone preferences in your user account.

Time Position Orientation Groundspeed Altitude Reporting Facility
EDT Latitude Longitude Course Direction KTS MPH feet Rate Location/Type
Sun 07:06:54 AM 42.7653 -73.8061 223° Southwest 154 177 1,600  Level Boston Center
Sun 07:07:12 AM 42.7778 -73.8092 350° North 150 173 2,300 2,784 Climbing Boston Center
Sun 07:08:59 AM 42.7803 -73.9478 271° West 235 270 7,400 3,413 Climbing Boston Center
Sun 07:09:00 AM 42.7333 -74.2756 270° West  Level FlightAware Approximate
Sun 07:09:59 AM 42.7706 -74.0439 262° West 240 276 11,800  Level Boston Center
Sun 07:10:00 AM 42.6860 -74.3679 220° Southwest  Level FlightAware Approximate
Sun 07:10:59 AM 42.7608 -74.1369 262° West 245 282 15,300  Level Boston Center
Sun 07:11:00 AM 42.6187 -74.4436 220° Southwest  Level FlightAware Approximate
Sun 07:11:59 AM 42.7533 -74.2242 263° West 264 304 17,900  Level Boston Center
Sun 07:12:00 AM 42.5529 -74.5214 223° Southwest  Level FlightAware Approximate
Sun 07:12:59 AM 42.7286 -74.3311 253° West 272 313 18,000  Level Boston Center
Sun 07:13:59 AM 42.6733 -74.3942 220° Southwest 272 313 18,000  Level Boston Center
Sun 07:14:59 AM 42.6053 -74.4683 219° Southwest 281 323 18,000  Level Boston Center
Sun 07:15:59 AM 42.5456 -74.5397 221° Southwest 292 336 18,000  Level Boston Center
Sun 07:16:59 AM 42.4839 -74.6108 220° Southwest 292 336 18,000 450 Level Boston Center
Sun 07:17:59 AM 42.4114 -74.6925 220° Southwest 330 380 18,900 300 Climbing Boston Center
Sun 07:20:19 AM 42.2369 -74.8911 220° Southwest 352 405 19,000 30 Climbing New York Center
Sun 07:21:17 AM 42.1678 -74.9678 219° Southwest 360 414 19,000  Level New York Center
Sun 07:22:18 AM 42.0753 -75.0458 212° Southwest 365 420 19,000  Level New York Center
Sun 07:23:17 AM 41.9897 -75.1156 211° Southwest 365 420 19,000  Level New York Center
Sun 07:24:18 AM 41.9122 -75.1800 212° Southwest 365 420 19,000  Level New York Center
Sun 07:25:19 AM 41.8178 -75.2572 211° Southwest 365 420 19,000  Level New York Center
Sun 07:26:17 AM 41.7342 -75.3239 211° Southwest 365 420 19,000 -857 Level New York Center
Sun 07:27:18 AM 41.6503 -75.3903 211° Southwest 360 414 17,300 -2,050 Descending New York Center
Sun 07:28:17 AM 41.5772 -75.4492 211° Southwest 353 406 14,900 -2,370 Descending New York Center
Sun 07:29:17 AM 41.4975 -75.5128 211° Southwest 348 400 12,600 -1,488 Descending New York Center
Sun 07:30:18 AM 41.4181 -75.5764 211° Southwest 329 379 11,900 -298 Descending New York Center
Sun 07:31:18 AM 41.3492 -75.6267 209° Southwest 300 345 12,000 50 Climbing New York Center
Sun 07:32:19 AM 41.2844 -75.6800 212° Southwest 294 338 12,000  Level New York Center
Sun 07:33:17 AM 41.2139 -75.7272 207° Southwest 284 327 12,000  Level New York Center
Sun 07:34:17 AM 41.1392 -75.7192 175° South 277 319 12,000 -49 Level New York Center
Sun 07:35:19 AM 41.0561 -75.7158 178° South 296 341 11,900  Descending New York Center
Sun 07:36:17 AM 40.9647 -75.7092 177° South 301 346 12,000 50 Climbing New York Center
Sun 07:37:18 AM 40.8817 -75.7031 177° South 306 352 12,000  Level New York Center
Sun 07:38:18 AM 40.8103 -75.6650 158° South 306 352 12,000  Level New York Center
Sun 07:39:19 AM 40.7331 -75.6156 154° Southeast 311 358 12,000 -50 Level New York Center
Sun 07:40:19 AM 40.6478 -75.5603 154° Southeast 316 364 11,900 -356 Descending New York Center
Sun 07:41:17 AM 40.5686 -75.5083 154° Southeast 316 364 11,300 -966 Descending New York Center
Sun 07:42:17 AM 40.4956 -75.4597 153° Southeast 310 357 10,000 -645 Descending New York Center
Sun 07:43:18 AM 40.4306 -75.4197 155° Southeast 303 349 10,000 -689 Level New York Center
Sun 07:44:19 AM 40.3489 -75.3733 157° South 294 338 8,600 -1,513 Descending New York Center
Sun 07:45:17 AM 40.2733 -75.3303 156° South 294 338 7,000 -864 Descending New York Center
Sun 07:46:17 AM 40.2061 -75.2906 156° South 289 333 6,900 -50 Descending New York Center
Sun 07:47:18 AM 40.1328 -75.2478 156° South 289 333 6,900  Level New York Center
Sun 07:48:19 AM 40.0592 -75.2078 157° South 289 333 6,900  Level New York Center
Sun 07:48:48 AM 40.0167 -75.1833 156° South 262 302 6,900 -539 Level Philadelphia TRACON
Sun 07:49:48 AM 40.0000 -75.1000 105° East 246 283 6,100 -1,000 Descending Philadelphia TRACON
Sun 07:50:48 AM 40.0167 -75.0167 75° East 252 290 4,900 -1,476 Descending Philadelphia TRACON
Sun 07:51:54 AM 39.9500 -75.0000 169° South 221 254 3,000 -1,727 Descending Philadelphia TRACON

Login

Don't have an account? Register now (free) for customized features, flight alerts, and more!